Cotipora, Brazil
Current Conditions -  °F | °C
As of 10:00 PM on Friday 24 Oct 2014 (Local Time) from SBPF Reporting Station
Clear Clear  
Wind Chill: 72°   Ceiling: Unl
Heat Index: 72°   Visibility: 6mi
Dew Point: 59°   Wind: 9mph
Humidity: 64%   Direction: 150°SSE
Pressure: 29.97"   Gusts: NA
Location:  28.99°S, 51.7°W
Report Text: SBPF 250000Z 15008KT CAVOK 22/15 Q1015
Loading
Personal Weather Stations






























Interactive Weather Map
Tropical Storm Tracking
New forecast layout! Learn more

10-Day Weather Forecast

Advertisements
Track Severe Weather on mobile